sensor_id;sensor_type;location;lat;lon;timestamp;P1;durP1;ratioP1;P2;durP2;ratioP2
42904;SDS011;28550;51.228;4.528;2022-12-07T00:01:18;27.10;;;17.92;;
42904;SDS011;28550;51.228;4.528;2022-12-07T00:03:44;25.27;;;17.30;;
42904;SDS011;28550;51.228;4.528;2022-12-07T00:06:12;25.17;;;16.52;;
42904;SDS011;28550;51.228;4.528;2022-12-07T00:08:39;28.23;;;15.88;;
42904;SDS011;28550;51.228;4.528;2022-12-07T00:11:06;24.50;;;17.30;;
42904;SDS011;28550;51.228;4.528;2022-12-07T00:13:40;26.15;;;16.83;;
42904;SDS011;28550;51.228;4.528;2022-12-07T00:16:07;24.25;;;17.15;;
42904;SDS011;28550;51.228;4.528;2022-12-07T00:18:37;32.40;;;17.95;;
42904;SDS011;28550;51.228;4.528;2022-12-07T00:21:04;33.28;;;18.10;;
42904;SDS011;28550;51.228;4.528;2022-12-07T00:23:32;30.63;;;18.25;;
42904;SDS011;28550;51.228;4.528;2022-12-07T00:26:09;30.83;;;18.02;;
42904;SDS011;28550;51.228;4.528;2022-12-07T00:28:49;31.10;;;19.35;;
42904;SDS011;28550;51.228;4.528;2022-12-07T00:31:18;32.13;;;18.15;;
42904;SDS011;28550;51.228;4.528;2022-12-07T00:33:45;27.75;;;17.92;;
42904;SDS011;28550;51.228;4.528;2022-12-07T00:36:14;36.33;;;19.98;;
42904;SDS011;28550;51.228;4.528;2022-12-07T00:38:42;26.45;;;18.35;;
42904;SDS011;28550;51.228;4.528;2022-12-07T00:41:12;34.50;;;18.67;;
42904;SDS011;28550;51.228;4.528;2022-12-07T00:43:40;29.95;;;17.90;;
42904;SDS011;28550;51.228;4.528;2022-12-07T00:46:06;29.02;;;17.83;;
42904;SDS011;28550;51.228;4.528;2022-12-07T00:48:32;27.33;;;19.15;;
42904;SDS011;28550;51.228;4.528;2022-12-07T00:50:58;28.50;;;18.63;;
42904;SDS011;28550;51.228;4.528;2022-12-07T00:53:24;31.83;;;19.15;;
42904;SDS011;28550;51.228;4.528;2022-12-07T00:55:51;33.85;;;19.50;;
42904;SDS011;28550;51.228;4.528;2022-12-07T00:58:17;32.08;;;18.63;;
42904;SDS011;28550;51.228;4.528;2022-12-07T01:00:44;30.02;;;19.98;;
42904;SDS011;28550;51.228;4.528;2022-12-07T01:03:11;30.13;;;19.10;;
42904;SDS011;28550;51.228;4.528;2022-12-07T01:05:38;36.58;;;20.73;;
42904;SDS011;28550;51.228;4.528;2022-12-07T01:08:05;32.83;;;20.30;;
42904;SDS011;28550;51.228;4.528;2022-12-07T01:10:31;32.45;;;20.75;;
42904;SDS011;28550;51.228;4.528;2022-12-07T01:12:57;30.77;;;20.58;;
42904;SDS011;28550;51.228;4.528;2022-12-07T01:15:24;29.80;;;20.25;;
42904;SDS011;28550;51.228;4.528;2022-12-07T01:17:50;32.20;;;20.83;;
42904;SDS011;28550;51.228;4.528;2022-12-07T01:20:16;33.22;;;21.27;;
42904;SDS011;28550;51.228;4.528;2022-12-07T01:22:42;37.38;;;21.98;;
42904;SDS011;28550;51.228;4.528;2022-12-07T01:25:09;32.58;;;20.35;;
42904;SDS011;28550;51.228;4.528;2022-12-07T01:27:36;34.40;;;20.85;;
42904;SDS011;28550;51.228;4.528;2022-12-07T01:30:03;30.80;;;20.65;;
42904;SDS011;28550;51.228;4.528;2022-12-07T01:32:32;29.27;;;19.33;;
42904;SDS011;28550;51.228;4.528;2022-12-07T01:34:58;25.13;;;17.67;;
42904;SDS011;28550;51.228;4.528;2022-12-07T01:37:24;27.80;;;20.27;;
42904;SDS011;28550;51.228;4.528;2022-12-07T01:39:50;30.15;;;18.92;;
42904;SDS011;28550;51.228;4.528;2022-12-07T01:42:16;33.92;;;20.95;;
42904;SDS011;28550;51.228;4.528;2022-12-07T01:47:43;70.70;;;24.88;;
42904;SDS011;28550;51.228;4.528;2022-12-07T01:50:11;30.58;;;20.25;;
42904;SDS011;28550;51.228;4.528;2022-12-07T01:52:38;30.15;;;20.27;;
42904;SDS011;28550;51.228;4.528;2022-12-07T01:55:07;25.98;;;18.88;;
42904;SDS011;28550;51.228;4.528;2022-12-07T01:57:37;31.13;;;20.95;;
42904;SDS011;28550;51.228;4.528;2022-12-07T02:00:08;52.08;;;22.38;;
42904;SDS011;28550;51.228;4.528;2022-12-07T02:02:36;38.45;;;19.65;;
42904;SDS011;28550;51.228;4.528;2022-12-07T02:05:07;32.80;;;20.08;;
42904;SDS011;28550;51.228;4.528;2022-12-07T02:07:34;57.15;;;20.63;;
42904;SDS011;28550;51.228;4.528;2022-12-07T02:13:02;28.55;;;19.48;;
42904;SDS011;28550;51.228;4.528;2022-12-07T02:23:41;33.00;;;22.40;;
42904;SDS011;28550;51.228;4.528;2022-12-07T02:31:50;29.05;;;22.38;;
42904;SDS011;28550;51.228;4.528;2022-12-07T02:34:47;35.00;;;21.90;;
42904;SDS011;28550;51.228;4.528;2022-12-07T02:37:35;35.13;;;21.65;;
42904;SDS011;28550;51.228;4.528;2022-12-07T02:42:36;34.90;;;24.88;;
42904;SDS011;28550;51.228;4.528;2022-12-07T02:45:05;36.22;;;24.50;;
42904;SDS011;28550;51.228;4.528;2022-12-07T02:47:33;37.47;;;24.15;;
42904;SDS011;28550;51.228;4.528;2022-12-07T02:50:02;32.83;;;24.80;;
42904;SDS011;28550;51.228;4.528;2022-12-07T02:52:29;32.33;;;23.52;;
42904;SDS011;28550;51.228;4.528;2022-12-07T02:54:55;32.08;;;22.77;;
42904;SDS011;28550;51.228;4.528;2022-12-07T02:57:27;34.75;;;23.42;;
42904;SDS011;28550;51.228;4.528;2022-12-07T03:00:07;32.97;;;25.05;;
42904;SDS011;28550;51.228;4.528;2022-12-07T03:10:56;32.42;;;21.17;;
42904;SDS011;28550;51.228;4.528;2022-12-07T03:13:30;31.65;;;21.58;;
42904;SDS011;28550;51.228;4.528;2022-12-07T03:18:35;31.13;;;22.75;;
42904;SDS011;28550;51.228;4.528;2022-12-07T03:21:27;36.40;;;23.35;;
42904;SDS011;28550;51.228;4.528;2022-12-07T03:24:07;30.85;;;20.75;;
42904;SDS011;28550;51.228;4.528;2022-12-07T03:26:38;43.97;;;22.65;;
42904;SDS011;28550;51.228;4.528;2022-12-07T03:29:09;28.55;;;20.80;;
42904;SDS011;28550;51.228;4.528;2022-12-07T03:31:43;35.58;;;21.55;;
42904;SDS011;28550;51.228;4.528;2022-12-07T03:39:34;34.63;;;20.15;;
42904;SDS011;28550;51.228;4.528;2022-12-07T03:42:06;33.60;;;20.05;;
42904;SDS011;28550;51.228;4.528;2022-12-07T03:44:35;40.78;;;22.23;;
42904;SDS011;28550;51.228;4.528;2022-12-07T03:47:12;52.65;;;21.90;;
42904;SDS011;28550;51.228;4.528;2022-12-07T03:57:30;32.90;;;22.08;;
42904;SDS011;28550;51.228;4.528;2022-12-07T03:59:58;25.25;;;19.52;;
42904;SDS011;28550;51.228;4.528;2022-12-07T04:02:25;32.40;;;21.92;;
42904;SDS011;28550;51.228;4.528;2022-12-07T04:04:52;29.45;;;21.33;;
42904;SDS011;28550;51.228;4.528;2022-12-07T04:07:18;32.85;;;21.27;;
42904;SDS011;28550;51.228;4.528;2022-12-07T04:09:44;30.88;;;21.23;;
42904;SDS011;28550;51.228;4.528;2022-12-07T04:12:09;31.25;;;20.17;;
42904;SDS011;28550;51.228;4.528;2022-12-07T04:14:35;27.08;;;19.65;;
42904;SDS011;28550;51.228;4.528;2022-12-07T04:17:01;28.45;;;20.60;;
42904;SDS011;28550;51.228;4.528;2022-12-07T04:19:28;31.17;;;20.02;;
42904;SDS011;28550;51.228;4.528;2022-12-07T04:21:56;26.02;;;18.55;;
42904;SDS011;28550;51.228;4.528;2022-12-07T04:24:22;25.42;;;19.38;;
42904;SDS011;28550;51.228;4.528;2022-12-07T04:26:48;24.25;;;19.40;;
42904;SDS011;28550;51.228;4.528;2022-12-07T04:29:14;26.38;;;20.58;;
42904;SDS011;28550;51.228;4.528;2022-12-07T04:31:41;31.33;;;21.75;;
42904;SDS011;28550;51.228;4.528;2022-12-07T04:34:07;25.70;;;18.80;;
42904;SDS011;28550;51.228;4.528;2022-12-07T04:36:33;24.50;;;18.38;;
42904;SDS011;28550;51.228;4.528;2022-12-07T04:39:00;28.98;;;19.80;;
42904;SDS011;28550;51.228;4.528;2022-12-07T04:41:26;26.92;;;20.02;;
42904;SDS011;28550;51.228;4.528;2022-12-07T04:43:53;31.90;;;21.00;;
42904;SDS011;28550;51.228;4.528;2022-12-07T04:46:25;27.13;;;19.90;;
42904;SDS011;28550;51.228;4.528;2022-12-07T04:48:52;25.45;;;18.73;;
42904;SDS011;28550;51.228;4.528;2022-12-07T04:51:20;27.35;;;19.35;;
42904;SDS011;28550;51.228;4.528;2022-12-07T04:53:48;29.20;;;21.58;;
42904;SDS011;28550;51.228;4.528;2022-12-07T04:56:14;31.42;;;20.35;;
42904;SDS011;28550;51.228;4.528;2022-12-07T04:58:41;28.13;;;20.05;;
42904;SDS011;28550;51.228;4.528;2022-12-07T05:01:08;31.00;;;20.35;;
42904;SDS011;28550;51.228;4.528;2022-12-07T05:03:35;25.70;;;19.95;;
42904;SDS011;28550;51.228;4.528;2022-12-07T05:06:01;26.05;;;19.20;;
42904;SDS011;28550;51.228;4.528;2022-12-07T05:08:27;32.15;;;20.13;;
42904;SDS011;28550;51.228;4.528;2022-12-07T05:10:53;34.65;;;21.45;;
42904;SDS011;28550;51.228;4.528;2022-12-07T05:13:19;26.45;;;20.35;;
42904;SDS011;28550;51.228;4.528;2022-12-07T05:15:46;28.00;;;20.27;;
42904;SDS011;28550;51.228;4.528;2022-12-07T05:18:12;29.13;;;19.42;;
42904;SDS011;28550;51.228;4.528;2022-12-07T05:20:38;41.67;;;19.42;;
42904;SDS011;28550;51.228;4.528;2022-12-07T05:23:05;33.72;;;18.90;;
42904;SDS011;28550;51.228;4.528;2022-12-07T05:25:30;22.98;;;17.85;;
42904;SDS011;28550;51.228;4.528;2022-12-07T05:27:56;26.25;;;17.05;;
42904;SDS011;28550;51.228;4.528;2022-12-07T05:30:23;21.88;;;16.50;;
42904;SDS011;28550;51.228;4.528;2022-12-07T05:32:49;25.88;;;17.13;;
42904;SDS011;28550;51.228;4.528;2022-12-07T05:35:15;26.40;;;17.92;;
42904;SDS011;28550;51.228;4.528;2022-12-07T05:37:40;24.13;;;17.35;;
42904;SDS011;28550;51.228;4.528;2022-12-07T05:40:06;28.73;;;18.02;;
42904;SDS011;28550;51.228;4.528;2022-12-07T05:42:33;29.65;;;17.58;;
42904;SDS011;28550;51.228;4.528;2022-12-07T05:44:59;24.33;;;16.85;;
42904;SDS011;28550;51.228;4.528;2022-12-07T05:47:25;24.67;;;17.27;;
42904;SDS011;28550;51.228;4.528;2022-12-07T05:49:51;27.65;;;17.17;;
42904;SDS011;28550;51.228;4.528;2022-12-07T05:52:17;24.42;;;17.50;;
42904;SDS011;28550;51.228;4.528;2022-12-07T05:54:43;23.92;;;16.13;;
42904;SDS011;28550;51.228;4.528;2022-12-07T05:57:09;36.00;;;20.15;;
42904;SDS011;28550;51.228;4.528;2022-12-07T05:59:35;28.58;;;18.60;;
42904;SDS011;28550;51.228;4.528;2022-12-07T06:02:05;27.50;;;17.35;;
42904;SDS011;28550;51.228;4.528;2022-12-07T06:04:34;30.15;;;16.92;;
42904;SDS011;28550;51.228;4.528;2022-12-07T06:07:02;21.65;;;16.48;;
42904;SDS011;28550;51.228;4.528;2022-12-07T06:09:28;21.30;;;16.08;;
42904;SDS011;28550;51.228;4.528;2022-12-07T06:11:54;27.08;;;16.52;;
42904;SDS011;28550;51.228;4.528;2022-12-07T06:14:39;25.08;;;17.50;;
42904;SDS011;28550;51.228;4.528;2022-12-07T06:17:05;29.55;;;18.42;;
42904;SDS011;28550;51.228;4.528;2022-12-07T06:19:31;31.08;;;19.40;;
42904;SDS011;28550;51.228;4.528;2022-12-07T06:21:57;25.83;;;17.25;;
42904;SDS011;28550;51.228;4.528;2022-12-07T06:24:24;26.95;;;18.70;;
42904;SDS011;28550;51.228;4.528;2022-12-07T06:26:50;27.17;;;17.35;;
42904;SDS011;28550;51.228;4.528;2022-12-07T06:29:16;25.42;;;17.27;;
42904;SDS011;28550;51.228;4.528;2022-12-07T06:31:42;25.52;;;17.30;;
42904;SDS011;28550;51.228;4.528;2022-12-07T06:34:12;26.05;;;16.15;;
42904;SDS011;28550;51.228;4.528;2022-12-07T06:36:39;25.27;;;15.18;;
42904;SDS011;28550;51.228;4.528;2022-12-07T06:39:05;23.05;;;15.13;;
42904;SDS011;28550;51.228;4.528;2022-12-07T06:41:34;22.42;;;15.50;;
42904;SDS011;28550;51.228;4.528;2022-12-07T06:44:02;20.63;;;14.60;;
42904;SDS011;28550;51.228;4.528;2022-12-07T06:46:28;20.33;;;14.77;;
42904;SDS011;28550;51.228;4.528;2022-12-07T06:48:54;20.55;;;14.00;;
42904;SDS011;28550;51.228;4.528;2022-12-07T06:51:20;18.98;;;13.30;;
42904;SDS011;28550;51.228;4.528;2022-12-07T06:53:45;47.17;;;15.95;;
42904;SDS011;28550;51.228;4.528;2022-12-07T06:56:11;46.20;;;16.20;;
42904;SDS011;28550;51.228;4.528;2022-12-07T06:58:37;26.70;;;14.48;;
42904;SDS011;28550;51.228;4.528;2022-12-07T07:01:02;79.47;;;17.85;;
42904;SDS011;28550;51.228;4.528;2022-12-07T07:03:33;66.85;;;16.65;;
42904;SDS011;28550;51.228;4.528;2022-12-07T07:05:58;21.95;;;13.45;;
42904;SDS011;28550;51.228;4.528;2022-12-07T07:08:30;23.00;;;13.75;;
42904;SDS011;28550;51.228;4.528;2022-12-07T07:10:56;18.42;;;12.45;;
42904;SDS011;28550;51.228;4.528;2022-12-07T07:13:21;20.23;;;13.35;;
42904;SDS011;28550;51.228;4.528;2022-12-07T07:15:47;16.63;;;11.93;;
42904;SDS011;28550;51.228;4.528;2022-12-07T07:18:13;21.00;;;12.57;;
42904;SDS011;28550;51.228;4.528;2022-12-07T07:20:40;18.35;;;13.52;;
42904;SDS011;28550;51.228;4.528;2022-12-07T07:23:06;24.85;;;13.93;;
42904;SDS011;28550;51.228;4.528;2022-12-07T07:25:32;22.73;;;14.60;;
42904;SDS011;28550;51.228;4.528;2022-12-07T07:27:58;22.38;;;13.38;;
42904;SDS011;28550;51.228;4.528;2022-12-07T07:30:24;18.58;;;13.20;;
42904;SDS011;28550;51.228;4.528;2022-12-07T07:32:50;18.75;;;12.70;;
42904;SDS011;28550;51.228;4.528;2022-12-07T07:35:16;18.23;;;13.68;;
42904;SDS011;28550;51.228;4.528;2022-12-07T07:37:42;20.98;;;12.88;;
42904;SDS011;28550;51.228;4.528;2022-12-07T07:40:08;22.80;;;11.63;;
42904;SDS011;28550;51.228;4.528;2022-12-07T07:42:38;21.15;;;12.00;;
42904;SDS011;28550;51.228;4.528;2022-12-07T07:45:04;18.80;;;11.60;;
42904;SDS011;28550;51.228;4.528;2022-12-07T07:47:30;24.40;;;12.38;;
42904;SDS011;28550;51.228;4.528;2022-12-07T07:49:55;17.73;;;11.63;;
42904;SDS011;28550;51.228;4.528;2022-12-07T07:52:22;22.80;;;12.40;;
42904;SDS011;28550;51.228;4.528;2022-12-07T07:54:47;21.02;;;12.25;;
42904;SDS011;28550;51.228;4.528;2022-12-07T07:57:13;19.52;;;11.63;;
42904;SDS011;28550;51.228;4.528;2022-12-07T07:59:39;20.73;;;11.85;;
42904;SDS011;28550;51.228;4.528;2022-12-07T08:02:05;16.67;;;12.18;;
42904;SDS011;28550;51.228;4.528;2022-12-07T08:04:30;20.85;;;11.85;;
42904;SDS011;28550;51.228;4.528;2022-12-07T08:06:56;21.60;;;12.45;;
42904;SDS011;28550;51.228;4.528;2022-12-07T08:09:22;18.67;;;11.93;;
42904;SDS011;28550;51.228;4.528;2022-12-07T08:11:47;19.35;;;12.13;;
42904;SDS011;28550;51.228;4.528;2022-12-07T08:14:13;17.42;;;12.30;;
42904;SDS011;28550;51.228;4.528;2022-12-07T08:16:39;19.45;;;12.88;;
42904;SDS011;28550;51.228;4.528;2022-12-07T08:19:05;18.17;;;12.32;;
42904;SDS011;28550;51.228;4.528;2022-12-07T08:21:33;20.17;;;12.90;;
42904;SDS011;28550;51.228;4.528;2022-12-07T08:23:59;19.20;;;11.20;;
42904;SDS011;28550;51.228;4.528;2022-12-07T08:26:26;20.55;;;12.30;;
42904;SDS011;28550;51.228;4.528;2022-12-07T08:28:52;101.85;;;35.33;;
42904;SDS011;28550;51.228;4.528;2022-12-07T08:31:18;31.55;;;15.55;;
42904;SDS011;28550;51.228;4.528;2022-12-07T08:33:45;34.15;;;14.38;;
42904;SDS011;28550;51.228;4.528;2022-12-07T08:36:12;22.00;;;10.55;;
42904;SDS011;28550;51.228;4.528;2022-12-07T08:38:39;15.18;;;9.45;;
42904;SDS011;28550;51.228;4.528;2022-12-07T08:41:06;31.98;;;13.20;;
42904;SDS011;28550;51.228;4.528;2022-12-07T08:43:32;17.33;;;10.95;;
42904;SDS011;28550;51.228;4.528;2022-12-07T08:46:41;17.33;;;9.40;;
42904;SDS011;28550;51.228;4.528;2022-12-07T08:49:06;14.68;;;10.02;;
42904;SDS011;28550;51.228;4.528;2022-12-07T08:51:36;14.18;;;9.63;;
42904;SDS011;28550;51.228;4.528;2022-12-07T08:54:03;23.13;;;10.65;;
42904;SDS011;28550;51.228;4.528;2022-12-07T08:56:31;25.90;;;10.13;;
42904;SDS011;28550;51.228;4.528;2022-12-07T08:58:57;18.58;;;9.32;;
42904;SDS011;28550;51.228;4.528;2022-12-07T09:01:23;22.42;;;8.18;;
42904;SDS011;28550;51.228;4.528;2022-12-07T09:03:49;16.80;;;7.53;;
42904;SDS011;28550;51.228;4.528;2022-12-07T09:06:14;18.50;;;9.23;;
42904;SDS011;28550;51.228;4.528;2022-12-07T09:08:42;14.15;;;8.40;;
42904;SDS011;28550;51.228;4.528;2022-12-07T09:11:15;11.20;;;7.68;;
42904;SDS011;28550;51.228;4.528;2022-12-07T09:13:40;17.67;;;8.00;;
42904;SDS011;28550;51.228;4.528;2022-12-07T09:16:06;11.45;;;8.35;;
42904;SDS011;28550;51.228;4.528;2022-12-07T09:18:32;15.55;;;7.43;;
42904;SDS011;28550;51.228;4.528;2022-12-07T09:20:57;16.05;;;6.95;;
42904;SDS011;28550;51.228;4.528;2022-12-07T09:23:23;16.52;;;7.28;;
42904;SDS011;28550;51.228;4.528;2022-12-07T09:25:49;18.95;;;7.63;;
42904;SDS011;28550;51.228;4.528;2022-12-07T09:28:15;17.63;;;7.07;;
42904;SDS011;28550;51.228;4.528;2022-12-07T09:30:47;15.30;;;7.38;;
42904;SDS011;28550;51.228;4.528;2022-12-07T09:33:13;10.38;;;6.88;;
42904;SDS011;28550;51.228;4.528;2022-12-07T09:35:49;15.65;;;7.63;;
42904;SDS011;28550;51.228;4.528;2022-12-07T09:38:15;12.75;;;6.90;;
42904;SDS011;28550;51.228;4.528;2022-12-07T09:40:42;12.65;;;7.93;;
42904;SDS011;28550;51.228;4.528;2022-12-07T09:43:18;11.23;;;6.75;;
42904;SDS011;28550;51.228;4.528;2022-12-07T09:45:47;11.65;;;7.30;;
42904;SDS011;28550;51.228;4.528;2022-12-07T09:48:18;14.30;;;7.10;;
42904;SDS011;28550;51.228;4.528;2022-12-07T09:50:46;9.18;;;4.82;;
42904;SDS011;28550;51.228;4.528;2022-12-07T09:53:17;13.48;;;5.60;;
42904;SDS011;28550;51.228;4.528;2022-12-07T09:55:51;12.30;;;5.57;;
42904;SDS011;28550;51.228;4.528;2022-12-07T09:58:22;11.32;;;4.43;;
42904;SDS011;28550;51.228;4.528;2022-12-07T10:01:09;9.50;;;4.72;;
42904;SDS011;28550;51.228;4.528;2022-12-07T10:03:39;13.27;;;5.28;;
42904;SDS011;28550;51.228;4.528;2022-12-07T10:06:09;15.85;;;5.40;;
42904;SDS011;28550;51.228;4.528;2022-12-07T10:08:37;8.50;;;4.45;;
42904;SDS011;28550;51.228;4.528;2022-12-07T10:11:03;14.20;;;6.22;;
42904;SDS011;28550;51.228;4.528;2022-12-07T10:16:01;16.67;;;9.18;;
42904;SDS011;28550;51.228;4.528;2022-12-07T10:18:28;14.27;;;8.63;;
42904;SDS011;28550;51.228;4.528;2022-12-07T10:23:59;11.55;;;5.35;;
42904;SDS011;28550;51.228;4.528;2022-12-07T10:32:05;11.65;;;6.13;;
42904;SDS011;28550;51.228;4.528;2022-12-07T10:34:33;32.05;;;14.93;;
42904;SDS011;28550;51.228;4.528;2022-12-07T10:37:33;22.13;;;8.98;;
42904;SDS011;28550;51.228;4.528;2022-12-07T10:39:54;12.90;;;5.90;;
42904;SDS011;28550;51.228;4.528;2022-12-07T10:42:25;10.70;;;6.18;;
42904;SDS011;28550;51.228;4.528;2022-12-07T10:45:15;11.98;;;4.95;;
42904;SDS011;28550;51.228;4.528;2022-12-07T10:53:26;12.52;;;4.60;;
42904;SDS011;28550;51.228;4.528;2022-12-07T10:56:07;16.92;;;5.30;;
42904;SDS011;28550;51.228;4.528;2022-12-07T11:13:22;10.00;;;4.60;;
42904;SDS011;28550;51.228;4.528;2022-12-07T11:19:04;7.47;;;4.57;;
42904;SDS011;28550;51.228;4.528;2022-12-07T11:38:41;12.90;;;5.60;;
42904;SDS011;28550;51.228;4.528;2022-12-07T11:41:13;12.55;;;5.50;;
42904;SDS011;28550;51.228;4.528;2022-12-07T11:46:18;14.57;;;6.78;;
42904;SDS011;28550;51.228;4.528;2022-12-07T11:48:51;11.30;;;5.90;;
42904;SDS011;28550;51.228;4.528;2022-12-07T11:51:35;12.23;;;5.57;;
42904;SDS011;28550;51.228;4.528;2022-12-07T11:54:21;9.77;;;4.97;;
42904;SDS011;28550;51.228;4.528;2022-12-07T11:56:51;12.30;;;5.32;;
42904;SDS011;28550;51.228;4.528;2022-12-07T11:59:27;14.52;;;5.45;;
42904;SDS011;28550;51.228;4.528;2022-12-07T12:02:14;11.80;;;5.78;;
42904;SDS011;28550;51.228;4.528;2022-12-07T12:07:27;11.57;;;5.65;;
42904;SDS011;28550;51.228;4.528;2022-12-07T12:10:00;13.75;;;6.35;;
42904;SDS011;28550;51.228;4.528;2022-12-07T12:15:49;14.00;;;7.03;;
42904;SDS011;28550;51.228;4.528;2022-12-07T12:21:08;13.07;;;7.05;;
42904;SDS011;28550;51.228;4.528;2022-12-07T12:26:07;12.40;;;7.05;;
42904;SDS011;28550;51.228;4.528;2022-12-07T12:33:56;9.90;;;5.60;;
42904;SDS011;28550;51.228;4.528;2022-12-07T12:39:14;17.55;;;6.05;;
42904;SDS011;28550;51.228;4.528;2022-12-07T12:51:48;6.93;;;3.80;;
42904;SDS011;28550;51.228;4.528;2022-12-07T12:54:22;6.18;;;3.85;;
42904;SDS011;28550;51.228;4.528;2022-12-07T12:59:56;9.43;;;3.80;;
42904;SDS011;28550;51.228;4.528;2022-12-07T13:02:28;6.10;;;3.85;;
42904;SDS011;28550;51.228;4.528;2022-12-07T13:05:01;10.23;;;3.92;;
42904;SDS011;28550;51.228;4.528;2022-12-07T13:12:58;5.07;;;3.17;;
42904;SDS011;28550;51.228;4.528;2022-12-07T13:31:24;12.63;;;4.40;;
42904;SDS011;28550;51.228;4.528;2022-12-07T13:33:52;6.88;;;3.75;;
42904;SDS011;28550;51.228;4.528;2022-12-07T13:36:22;14.40;;;4.18;;
42904;SDS011;28550;51.228;4.528;2022-12-07T13:39:10;9.63;;;4.32;;
42904;SDS011;28550;51.228;4.528;2022-12-07T13:41:36;12.05;;;4.65;;
42904;SDS011;28550;51.228;4.528;2022-12-07T13:44:42;15.32;;;7.57;;
42904;SDS011;28550;51.228;4.528;2022-12-07T13:47:18;12.50;;;7.22;;
42904;SDS011;28550;51.228;4.528;2022-12-07T13:50:30;15.40;;;9.80;;
42904;SDS011;28550;51.228;4.528;2022-12-07T13:52:59;16.40;;;8.35;;
42904;SDS011;28550;51.228;4.528;2022-12-07T13:55:26;14.85;;;7.22;;
42904;SDS011;28550;51.228;4.528;2022-12-07T13:57:53;5.90;;;4.03;;
42904;SDS011;28550;51.228;4.528;2022-12-07T14:00:21;20.85;;;12.13;;
42904;SDS011;28550;51.228;4.528;2022-12-07T14:03:02;20.48;;;9.25;;
42904;SDS011;28550;51.228;4.528;2022-12-07T14:06:05;16.70;;;7.85;;
42904;SDS011;28550;51.228;4.528;2022-12-07T14:08:42;10.07;;;6.07;;
42904;SDS011;28550;51.228;4.528;2022-12-07T14:11:16;9.18;;;5.07;;
42904;SDS011;28550;51.228;4.528;2022-12-07T14:13:50;15.05;;;10.77;;
42904;SDS011;28550;51.228;4.528;2022-12-07T14:18:55;11.52;;;4.45;;
42904;SDS011;28550;51.228;4.528;2022-12-07T14:21:23;9.77;;;4.72;;
42904;SDS011;28550;51.228;4.528;2022-12-07T14:26:52;11.13;;;5.30;;
42904;SDS011;28550;51.228;4.528;2022-12-07T14:29:19;10.80;;;5.45;;
42904;SDS011;28550;51.228;4.528;2022-12-07T14:31:44;6.60;;;3.20;;
42904;SDS011;28550;51.228;4.528;2022-12-07T14:34:13;5.15;;;2.78;;
42904;SDS011;28550;51.228;4.528;2022-12-07T14:36:39;5.43;;;3.92;;
42904;SDS011;28550;51.228;4.528;2022-12-07T14:39:05;8.98;;;4.32;;
42904;SDS011;28550;51.228;4.528;2022-12-07T14:41:30;9.43;;;3.10;;
42904;SDS011;28550;51.228;4.528;2022-12-07T14:46:40;9.02;;;3.42;;
42904;SDS011;28550;51.228;4.528;2022-12-07T14:49:06;8.25;;;3.75;;
42904;SDS011;28550;51.228;4.528;2022-12-07T14:51:35;6.68;;;3.58;;
42904;SDS011;28550;51.228;4.528;2022-12-07T14:54:04;8.73;;;3.72;;
42904;SDS011;28550;51.228;4.528;2022-12-07T14:56:31;6.05;;;3.42;;
42904;SDS011;28550;51.228;4.528;2022-12-07T14:58:57;6.32;;;3.35;;
42904;SDS011;28550;51.228;4.528;2022-12-07T15:01:22;7.22;;;3.10;;
42904;SDS011;28550;51.228;4.528;2022-12-07T15:03:48;5.35;;;3.50;;
42904;SDS011;28550;51.228;4.528;2022-12-07T15:06:15;9.30;;;3.25;;
42904;SDS011;28550;51.228;4.528;2022-12-07T15:08:41;8.20;;;3.60;;
42904;SDS011;28550;51.228;4.528;2022-12-07T15:11:11;9.75;;;4.10;;
42904;SDS011;28550;51.228;4.528;2022-12-07T15:13:38;7.28;;;3.70;;
42904;SDS011;28550;51.228;4.528;2022-12-07T15:18:48;8.02;;;3.97;;
42904;SDS011;28550;51.228;4.528;2022-12-07T15:21:14;8.32;;;3.80;;
42904;SDS011;28550;51.228;4.528;2022-12-07T15:23:40;9.98;;;4.13;;
42904;SDS011;28550;51.228;4.528;2022-12-07T15:26:06;6.50;;;3.42;;
42904;SDS011;28550;51.228;4.528;2022-12-07T15:28:32;16.25;;;6.63;;
42904;SDS011;28550;51.228;4.528;2022-12-07T15:30:58;16.08;;;5.55;;
42904;SDS011;28550;51.228;4.528;2022-12-07T15:33:24;11.95;;;4.88;;
42904;SDS011;28550;51.228;4.528;2022-12-07T15:36:21;6.93;;;4.43;;
42904;SDS011;28550;51.228;4.528;2022-12-07T15:38:51;6.13;;;4.10;;
42904;SDS011;28550;51.228;4.528;2022-12-07T15:41:17;8.50;;;4.60;;
42904;SDS011;28550;51.228;4.528;2022-12-07T15:43:43;10.15;;;5.25;;
42904;SDS011;28550;51.228;4.528;2022-12-07T15:46:32;9.48;;;5.05;;
42904;SDS011;28550;51.228;4.528;2022-12-07T15:49:03;10.27;;;5.65;;
42904;SDS011;28550;51.228;4.528;2022-12-07T15:51:34;10.70;;;5.38;;
42904;SDS011;28550;51.228;4.528;2022-12-07T15:54:00;11.73;;;6.25;;
42904;SDS011;28550;51.228;4.528;2022-12-07T15:56:25;14.43;;;5.38;;
42904;SDS011;28550;51.228;4.528;2022-12-07T15:59:00;9.88;;;4.57;;
42904;SDS011;28550;51.228;4.528;2022-12-07T16:01:26;16.05;;;5.00;;
42904;SDS011;28550;51.228;4.528;2022-12-07T16:03:52;7.90;;;4.10;;
42904;SDS011;28550;51.228;4.528;2022-12-07T16:06:18;13.40;;;5.10;;
42904;SDS011;28550;51.228;4.528;2022-12-07T16:08:44;13.70;;;5.72;;
42904;SDS011;28550;51.228;4.528;2022-12-07T16:11:12;11.57;;;5.43;;
42904;SDS011;28550;51.228;4.528;2022-12-07T16:13:38;11.07;;;5.47;;
42904;SDS011;28550;51.228;4.528;2022-12-07T16:16:09;9.60;;;5.78;;
42904;SDS011;28550;51.228;4.528;2022-12-07T16:18:37;13.40;;;5.63;;
42904;SDS011;28550;51.228;4.528;2022-12-07T16:21:03;12.18;;;5.18;;
42904;SDS011;28550;51.228;4.528;2022-12-07T16:23:29;12.10;;;6.30;;
42904;SDS011;28550;51.228;4.528;2022-12-07T16:26:03;8.70;;;4.72;;
42904;SDS011;28550;51.228;4.528;2022-12-07T16:28:33;11.45;;;5.57;;
42904;SDS011;28550;51.228;4.528;2022-12-07T16:31:00;14.02;;;5.90;;
42904;SDS011;28550;51.228;4.528;2022-12-07T16:33:38;8.10;;;4.90;;
42904;SDS011;28550;51.228;4.528;2022-12-07T16:36:05;9.00;;;5.20;;
42904;SDS011;28550;51.228;4.528;2022-12-07T16:38:33;11.02;;;5.47;;
42904;SDS011;28550;51.228;4.528;2022-12-07T16:40:59;10.43;;;5.32;;
42904;SDS011;28550;51.228;4.528;2022-12-07T16:43:25;9.65;;;5.07;;
42904;SDS011;28550;51.228;4.528;2022-12-07T16:45:51;12.82;;;5.88;;
42904;SDS011;28550;51.228;4.528;2022-12-07T16:48:17;11.88;;;5.68;;
42904;SDS011;28550;51.228;4.528;2022-12-07T16:50:43;11.70;;;5.68;;
42904;SDS011;28550;51.228;4.528;2022-12-07T16:53:22;11.85;;;6.18;;
42904;SDS011;28550;51.228;4.528;2022-12-07T16:55:57;12.80;;;6.18;;
42904;SDS011;28550;51.228;4.528;2022-12-07T16:58:23;11.88;;;5.30;;
42904;SDS011;28550;51.228;4.528;2022-12-07T17:00:50;14.13;;;5.13;;
42904;SDS011;28550;51.228;4.528;2022-12-07T17:03:19;11.85;;;5.30;;
42904;SDS011;28550;51.228;4.528;2022-12-07T17:05:48;8.75;;;5.35;;
42904;SDS011;28550;51.228;4.528;2022-12-07T17:08:17;7.97;;;4.75;;
42904;SDS011;28550;51.228;4.528;2022-12-07T17:10:43;10.00;;;5.03;;
42904;SDS011;28550;51.228;4.528;2022-12-07T17:13:11;12.32;;;7.38;;
42904;SDS011;28550;51.228;4.528;2022-12-07T17:16:00;13.50;;;8.50;;
42904;SDS011;28550;51.228;4.528;2022-12-07T17:18:35;15.18;;;11.07;;
42904;SDS011;28550;51.228;4.528;2022-12-07T17:21:03;13.23;;;10.10;;
42904;SDS011;28550;51.228;4.528;2022-12-07T17:23:31;11.70;;;8.65;;
42904;SDS011;28550;51.228;4.528;2022-12-07T17:26:19;15.43;;;7.28;;